sensor_id;sensor_type;location;lat;lon;timestamp;P1;durP1;ratioP1;P2;durP2;ratioP2
37303;SDS011;23188;51.188;16.374;2023-07-29T00:02:25;5.80;;;3.70;;
37303;SDS011;23188;51.188;16.374;2023-07-29T00:06:29;6.30;;;4.10;;
37303;SDS011;23188;51.188;16.374;2023-07-29T00:10:32;6.60;;;4.00;;
37303;SDS011;23188;51.188;16.374;2023-07-29T00:14:38;2.70;;;2.50;;
37303;SDS011;23188;51.188;16.374;2023-07-29T00:18:41;2.40;;;2.20;;
37303;SDS011;23188;51.188;16.374;2023-07-29T00:22:44;4.70;;;3.70;;
37303;SDS011;23188;51.188;16.374;2023-07-29T00:26:47;3.70;;;3.10;;
37303;SDS011;23188;51.188;16.374;2023-07-29T00:30:50;4.50;;;3.40;;
37303;SDS011;23188;51.188;16.374;2023-07-29T00:34:53;5.70;;;3.20;;
37303;SDS011;23188;51.188;16.374;2023-07-29T00:38:56;6.00;;;3.00;;
37303;SDS011;23188;51.188;16.374;2023-07-29T00:43:00;11.00;;;4.00;;
37303;SDS011;23188;51.188;16.374;2023-07-29T00:47:03;5.10;;;3.30;;
37303;SDS011;23188;51.188;16.374;2023-07-29T00:55:11;8.80;;;3.80;;
37303;SDS011;23188;51.188;16.374;2023-07-29T00:59:14;5.00;;;3.80;;
37303;SDS011;23188;51.188;16.374;2023-07-29T01:03:18;6.40;;;3.60;;
37303;SDS011;23188;51.188;16.374;2023-07-29T01:07:33;4.60;;;3.10;;
37303;SDS011;23188;51.188;16.374;2023-07-29T01:16:17;7.70;;;4.50;;
37303;SDS011;23188;51.188;16.374;2023-07-29T01:20:26;26.10;;;4.10;;
37303;SDS011;23188;51.188;16.374;2023-07-29T01:24:31;5.00;;;3.10;;
37303;SDS011;23188;51.188;16.374;2023-07-29T01:28:34;3.90;;;3.20;;
37303;SDS011;23188;51.188;16.374;2023-07-29T01:36:41;11.80;;;3.10;;
37303;SDS011;23188;51.188;16.374;2023-07-29T01:40:49;2.90;;;2.50;;
37303;SDS011;23188;51.188;16.374;2023-07-29T01:44:53;4.10;;;3.00;;
37303;SDS011;23188;51.188;16.374;2023-07-29T01:48:56;2.90;;;2.50;;
37303;SDS011;23188;51.188;16.374;2023-07-29T01:52:59;5.10;;;3.10;;
37303;SDS011;23188;51.188;16.374;2023-07-29T01:57:02;3.70;;;2.40;;
37303;SDS011;23188;51.188;16.374;2023-07-29T02:01:05;4.90;;;3.30;;
37303;SDS011;23188;51.188;16.374;2023-07-29T02:05:08;4.20;;;2.70;;
37303;SDS011;23188;51.188;16.374;2023-07-29T02:09:11;4.30;;;2.90;;
37303;SDS011;23188;51.188;16.374;2023-07-29T02:13:15;5.10;;;2.20;;
37303;SDS011;23188;51.188;16.374;2023-07-29T02:17:18;3.00;;;1.70;;
37303;SDS011;23188;51.188;16.374;2023-07-29T02:21:21;2.80;;;2.40;;
37303;SDS011;23188;51.188;16.374;2023-07-29T02:25:24;4.50;;;2.40;;
37303;SDS011;23188;51.188;16.374;2023-07-29T02:29:27;3.00;;;2.50;;
37303;SDS011;23188;51.188;16.374;2023-07-29T02:33:32;4.60;;;3.40;;
37303;SDS011;23188;51.188;16.374;2023-07-29T02:37:35;8.60;;;2.40;;
37303;SDS011;23188;51.188;16.374;2023-07-29T02:41:37;4.00;;;2.40;;
37303;SDS011;23188;51.188;16.374;2023-07-29T02:45:40;5.70;;;2.60;;
37303;SDS011;23188;51.188;16.374;2023-07-29T02:49:44;3.70;;;1.80;;
37303;SDS011;23188;51.188;16.374;2023-07-29T02:53:46;3.10;;;2.80;;
37303;SDS011;23188;51.188;16.374;2023-07-29T02:57:49;5.30;;;3.20;;
37303;SDS011;23188;51.188;16.374;2023-07-29T03:01:52;5.90;;;2.20;;
37303;SDS011;23188;51.188;16.374;2023-07-29T03:06:00;11.70;;;3.20;;
37303;SDS011;23188;51.188;16.374;2023-07-29T03:10:04;3.40;;;2.60;;
37303;SDS011;23188;51.188;16.374;2023-07-29T03:14:09;10.70;;;3.00;;
37303;SDS011;23188;51.188;16.374;2023-07-29T03:18:11;3.70;;;3.00;;
37303;SDS011;23188;51.188;16.374;2023-07-29T03:22:14;5.90;;;2.90;;
37303;SDS011;23188;51.188;16.374;2023-07-29T03:26:17;4.30;;;2.90;;
37303;SDS011;23188;51.188;16.374;2023-07-29T03:30:21;8.60;;;2.20;;
37303;SDS011;23188;51.188;16.374;2023-07-29T03:34:24;2.90;;;2.40;;
37303;SDS011;23188;51.188;16.374;2023-07-29T03:38:27;7.20;;;2.60;;
37303;SDS011;23188;51.188;16.374;2023-07-29T03:42:30;3.20;;;1.30;;
37303;SDS011;23188;51.188;16.374;2023-07-29T03:46:33;2.60;;;2.20;;
37303;SDS011;23188;51.188;16.374;2023-07-29T03:50:37;4.50;;;1.30;;
37303;SDS011;23188;51.188;16.374;2023-07-29T03:54:40;1.60;;;1.50;;
37303;SDS011;23188;51.188;16.374;2023-07-29T03:58:43;2.90;;;2.20;;
37303;SDS011;23188;51.188;16.374;2023-07-29T04:02:48;5.80;;;1.50;;
37303;SDS011;23188;51.188;16.374;2023-07-29T04:06:51;4.60;;;1.80;;
37303;SDS011;23188;51.188;16.374;2023-07-29T04:10:54;3.60;;;2.20;;
37303;SDS011;23188;51.188;16.374;2023-07-29T04:14:57;3.10;;;1.50;;
37303;SDS011;23188;51.188;16.374;2023-07-29T04:19:00;6.20;;;2.20;;
37303;SDS011;23188;51.188;16.374;2023-07-29T04:23:03;6.00;;;2.80;;
37303;SDS011;23188;51.188;16.374;2023-07-29T04:27:06;8.30;;;2.30;;
37303;SDS011;23188;51.188;16.374;2023-07-29T04:31:09;7.50;;;2.90;;
37303;SDS011;23188;51.188;16.374;2023-07-29T04:35:12;7.40;;;2.40;;
37303;SDS011;23188;51.188;16.374;2023-07-29T04:39:15;6.40;;;2.50;;
37303;SDS011;23188;51.188;16.374;2023-07-29T04:43:19;3.90;;;2.20;;
37303;SDS011;23188;51.188;16.374;2023-07-29T04:47:21;4.10;;;1.60;;
37303;SDS011;23188;51.188;16.374;2023-07-29T04:51:27;7.80;;;2.30;;
37303;SDS011;23188;51.188;16.374;2023-07-29T04:55:29;3.60;;;1.70;;
37303;SDS011;23188;51.188;16.374;2023-07-29T04:59:33;5.20;;;2.40;;
37303;SDS011;23188;51.188;16.374;2023-07-29T05:03:36;3.30;;;1.30;;
37303;SDS011;23188;51.188;16.374;2023-07-29T05:07:39;2.40;;;1.30;;
37303;SDS011;23188;51.188;16.374;2023-07-29T05:11:42;4.50;;;1.00;;
37303;SDS011;23188;51.188;16.374;2023-07-29T05:15:48;4.20;;;1.00;;
37303;SDS011;23188;51.188;16.374;2023-07-29T05:19:52;4.30;;;0.90;;
37303;SDS011;23188;51.188;16.374;2023-07-29T05:23:54;2.00;;;0.30;;
37303;SDS011;23188;51.188;16.374;2023-07-29T05:27:57;1.10;;;1.00;;
37303;SDS011;23188;51.188;16.374;2023-07-29T05:32:00;3.80;;;1.60;;
37303;SDS011;23188;51.188;16.374;2023-07-29T05:36:03;2.10;;;0.50;;
37303;SDS011;23188;51.188;16.374;2023-07-29T05:40:07;6.90;;;1.40;;
37303;SDS011;23188;51.188;16.374;2023-07-29T05:44:11;2.00;;;0.90;;
37303;SDS011;23188;51.188;16.374;2023-07-29T05:48:14;2.00;;;0.40;;
37303;SDS011;23188;51.188;16.374;2023-07-29T05:52:16;0.70;;;0.70;;
37303;SDS011;23188;51.188;16.374;2023-07-29T05:56:20;0.70;;;0.60;;
37303;SDS011;23188;51.188;16.374;2023-07-29T06:00:24;5.90;;;1.40;;
37303;SDS011;23188;51.188;16.374;2023-07-29T06:04:28;1.00;;;0.60;;
37303;SDS011;23188;51.188;16.374;2023-07-29T06:08:31;7.30;;;1.10;;
37303;SDS011;23188;51.188;16.374;2023-07-29T06:12:37;0.80;;;0.50;;
37303;SDS011;23188;51.188;16.374;2023-07-29T06:16:41;4.40;;;1.60;;
37303;SDS011;23188;51.188;16.374;2023-07-29T06:20:45;0.60;;;0.50;;
37303;SDS011;23188;51.188;16.374;2023-07-29T06:24:49;0.70;;;0.70;;
37303;SDS011;23188;51.188;16.374;2023-07-29T06:28:53;1.60;;;1.20;;
37303;SDS011;23188;51.188;16.374;2023-07-29T06:32:56;16.50;;;2.10;;
37303;SDS011;23188;51.188;16.374;2023-07-29T06:37:00;1.00;;;0.80;;
37303;SDS011;23188;51.188;16.374;2023-07-29T06:41:04;2.50;;;0.50;;
37303;SDS011;23188;51.188;16.374;2023-07-29T06:45:09;0.70;;;0.50;;
37303;SDS011;23188;51.188;16.374;2023-07-29T06:49:13;1.40;;;0.80;;
37303;SDS011;23188;51.188;16.374;2023-07-29T06:53:22;1.60;;;0.80;;
37303;SDS011;23188;51.188;16.374;2023-07-29T06:57:26;0.70;;;0.50;;
37303;SDS011;23188;51.188;16.374;2023-07-29T07:01:30;1.10;;;0.80;;
37303;SDS011;23188;51.188;16.374;2023-07-29T07:05:34;1.90;;;1.40;;
37303;SDS011;23188;51.188;16.374;2023-07-29T07:09:38;0.70;;;0.70;;
37303;SDS011;23188;51.188;16.374;2023-07-29T07:13:41;1.80;;;1.20;;
37303;SDS011;23188;51.188;16.374;2023-07-29T07:17:45;0.50;;;0.50;;
37303;SDS011;23188;51.188;16.374;2023-07-29T07:21:48;1.50;;;0.90;;
37303;SDS011;23188;51.188;16.374;2023-07-29T07:25:52;1.60;;;0.90;;
37303;SDS011;23188;51.188;16.374;2023-07-29T07:29:56;2.20;;;1.00;;
37303;SDS011;23188;51.188;16.374;2023-07-29T07:33:59;4.10;;;1.00;;
37303;SDS011;23188;51.188;16.374;2023-07-29T07:38:05;1.70;;;0.80;;
37303;SDS011;23188;51.188;16.374;2023-07-29T07:42:10;0.90;;;0.60;;
37303;SDS011;23188;51.188;16.374;2023-07-29T07:46:14;5.40;;;1.80;;
37303;SDS011;23188;51.188;16.374;2023-07-29T07:50:18;9.60;;;1.40;;
37303;SDS011;23188;51.188;16.374;2023-07-29T07:54:22;1.00;;;0.70;;
37303;SDS011;23188;51.188;16.374;2023-07-29T07:58:25;1.10;;;0.70;;
37303;SDS011;23188;51.188;16.374;2023-07-29T08:02:29;3.50;;;1.10;;
37303;SDS011;23188;51.188;16.374;2023-07-29T08:06:32;0.80;;;0.80;;
37303;SDS011;23188;51.188;16.374;2023-07-29T08:10:37;2.30;;;0.70;;
37303;SDS011;23188;51.188;16.374;2023-07-29T08:14:41;0.90;;;0.50;;
37303;SDS011;23188;51.188;16.374;2023-07-29T08:18:44;1.10;;;1.00;;
37303;SDS011;23188;51.188;16.374;2023-07-29T08:22:48;3.30;;;1.00;;
37303;SDS011;23188;51.188;16.374;2023-07-29T08:26:52;0.90;;;0.50;;
37303;SDS011;23188;51.188;16.374;2023-07-29T08:30:56;2.00;;;0.80;;
37303;SDS011;23188;51.188;16.374;2023-07-29T08:35:00;8.70;;;1.90;;
37303;SDS011;23188;51.188;16.374;2023-07-29T08:39:04;0.60;;;0.60;;
37303;SDS011;23188;51.188;16.374;2023-07-29T08:43:08;1.10;;;0.80;;
37303;SDS011;23188;51.188;16.374;2023-07-29T08:47:13;1.20;;;0.80;;
37303;SDS011;23188;51.188;16.374;2023-07-29T08:51:17;0.50;;;0.50;;
37303;SDS011;23188;51.188;16.374;2023-07-29T08:55:22;2.80;;;1.00;;
37303;SDS011;23188;51.188;16.374;2023-07-29T08:59:26;7.30;;;4.00;;
37303;SDS011;23188;51.188;16.374;2023-07-29T09:03:32;3.00;;;1.80;;
37303;SDS011;23188;51.188;16.374;2023-07-29T09:07:36;1.40;;;0.90;;
37303;SDS011;23188;51.188;16.374;2023-07-29T09:11:40;2.20;;;1.10;;
37303;SDS011;23188;51.188;16.374;2023-07-29T09:15:45;6.20;;;1.40;;
37303;SDS011;23188;51.188;16.374;2023-07-29T09:19:54;0.80;;;0.50;;
37303;SDS011;23188;51.188;16.374;2023-07-29T09:24:02;0.30;;;0.30;;
37303;SDS011;23188;51.188;16.374;2023-07-29T09:28:12;1.10;;;1.10;;
37303;SDS011;23188;51.188;16.374;2023-07-29T09:32:19;1.50;;;1.00;;
37303;SDS011;23188;51.188;16.374;2023-07-29T09:36:47;1.30;;;0.90;;
37303;SDS011;23188;51.188;16.374;2023-07-29T09:41:09;2.40;;;0.80;;
37303;SDS011;23188;51.188;16.374;2023-07-29T09:45:28;1.20;;;0.70;;
37303;SDS011;23188;51.188;16.374;2023-07-29T09:49:34;1.30;;;0.70;;
37303;SDS011;23188;51.188;16.374;2023-07-29T09:53:47;1.00;;;0.80;;
37303;SDS011;23188;51.188;16.374;2023-07-29T09:58:00;1.30;;;1.20;;
37303;SDS011;23188;51.188;16.374;2023-07-29T10:02:14;1.40;;;1.20;;
37303;SDS011;23188;51.188;16.374;2023-07-29T10:06:19;5.60;;;1.60;;
37303;SDS011;23188;51.188;16.374;2023-07-29T10:10:24;1.00;;;1.00;;
37303;SDS011;23188;51.188;16.374;2023-07-29T10:14:28;11.30;;;2.70;;
37303;SDS011;23188;51.188;16.374;2023-07-29T10:18:34;1.60;;;1.20;;
37303;SDS011;23188;51.188;16.374;2023-07-29T10:22:38;2.90;;;2.20;;
37303;SDS011;23188;51.188;16.374;2023-07-29T10:26:44;2.80;;;1.40;;
37303;SDS011;23188;51.188;16.374;2023-07-29T10:30:50;1.90;;;1.30;;
37303;SDS011;23188;51.188;16.374;2023-07-29T10:34:54;6.30;;;1.90;;
37303;SDS011;23188;51.188;16.374;2023-07-29T10:38:58;2.10;;;1.60;;
37303;SDS011;23188;51.188;16.374;2023-07-29T10:43:03;2.60;;;1.70;;
37303;SDS011;23188;51.188;16.374;2023-07-29T10:47:14;1.50;;;1.40;;
37303;SDS011;23188;51.188;16.374;2023-07-29T10:51:51;2.00;;;1.90;;
37303;SDS011;23188;51.188;16.374;2023-07-29T10:56:25;4.40;;;2.70;;
37303;SDS011;23188;51.188;16.374;2023-07-29T11:00:38;4.00;;;2.40;;
37303;SDS011;23188;51.188;16.374;2023-07-29T11:04:49;2.40;;;1.90;;
37303;SDS011;23188;51.188;16.374;2023-07-29T11:22:45;1.80;;;1.70;;
37303;SDS011;23188;51.188;16.374;2023-07-29T11:26:49;6.30;;;1.80;;
37303;SDS011;23188;51.188;16.374;2023-07-29T11:30:53;2.00;;;1.50;;
37303;SDS011;23188;51.188;16.374;2023-07-29T11:35:13;2.10;;;1.70;;
37303;SDS011;23188;51.188;16.374;2023-07-29T11:39:18;4.60;;;2.80;;
37303;SDS011;23188;51.188;16.374;2023-07-29T11:43:22;3.70;;;2.60;;
37303;SDS011;23188;51.188;16.374;2023-07-29T11:47:26;3.10;;;2.90;;
37303;SDS011;23188;51.188;16.374;2023-07-29T11:51:33;3.80;;;2.20;;
37303;SDS011;23188;51.188;16.374;2023-07-29T11:56:04;3.70;;;2.60;;
37303;SDS011;23188;51.188;16.374;2023-07-29T12:00:08;1.80;;;1.70;;
37303;SDS011;23188;51.188;16.374;2023-07-29T12:18:54;5.00;;;0.90;;
37303;SDS011;23188;51.188;16.374;2023-07-29T12:23:16;2.40;;;0.90;;
37303;SDS011;23188;51.188;16.374;2023-07-29T12:31:58;4.40;;;1.40;;
37303;SDS011;23188;51.188;16.374;2023-07-29T12:36:05;2.50;;;1.50;;
37303;SDS011;23188;51.188;16.374;2023-07-29T12:44:34;2.50;;;1.20;;
37303;SDS011;23188;51.188;16.374;2023-07-29T12:48:38;2.30;;;0.70;;
37303;SDS011;23188;51.188;16.374;2023-07-29T12:52:42;1.80;;;1.10;;
37303;SDS011;23188;51.188;16.374;2023-07-29T12:56:44;2.90;;;1.60;;
37303;SDS011;23188;51.188;16.374;2023-07-29T13:00:48;0.80;;;0.60;;
37303;SDS011;23188;51.188;16.374;2023-07-29T13:04:51;4.90;;;1.20;;
37303;SDS011;23188;51.188;16.374;2023-07-29T13:08:54;2.90;;;1.20;;
37303;SDS011;23188;51.188;16.374;2023-07-29T13:13:02;3.20;;;1.30;;
37303;SDS011;23188;51.188;16.374;2023-07-29T13:17:09;1.50;;;1.10;;
37303;SDS011;23188;51.188;16.374;2023-07-29T13:21:12;5.40;;;1.90;;
37303;SDS011;23188;51.188;16.374;2023-07-29T13:25:16;1.50;;;1.00;;
37303;SDS011;23188;51.188;16.374;2023-07-29T13:29:19;2.10;;;1.00;;
37303;SDS011;23188;51.188;16.374;2023-07-29T13:37:52;1.50;;;1.00;;
37303;SDS011;23188;51.188;16.374;2023-07-29T13:51:51;0.80;;;0.40;;
37303;SDS011;23188;51.188;16.374;2023-07-29T14:00:22;0.50;;;0.20;;
37303;SDS011;23188;51.188;16.374;2023-07-29T14:04:25;0.70;;;0.50;;
37303;SDS011;23188;51.188;16.374;2023-07-29T14:08:35;0.90;;;0.70;;
37303;SDS011;23188;51.188;16.374;2023-07-29T14:12:38;1.80;;;1.20;;
37303;SDS011;23188;51.188;16.374;2023-07-29T14:16:41;0.60;;;0.60;;
37303;SDS011;23188;51.188;16.374;2023-07-29T14:20:44;0.90;;;0.60;;
37303;SDS011;23188;51.188;16.374;2023-07-29T14:24:47;0.70;;;0.50;;
37303;SDS011;23188;51.188;16.374;2023-07-29T14:28:50;2.20;;;0.90;;
37303;SDS011;23188;51.188;16.374;2023-07-29T14:37:21;1.20;;;0.40;;
37303;SDS011;23188;51.188;16.374;2023-07-29T14:41:24;0.40;;;0.40;;
37303;SDS011;23188;51.188;16.374;2023-07-29T14:45:31;3.40;;;0.70;;
37303;SDS011;23188;51.188;16.374;2023-07-29T14:54:07;1.60;;;0.90;;
37303;SDS011;23188;51.188;16.374;2023-07-29T15:02:45;2.90;;;0.90;;
37303;SDS011;23188;51.188;16.374;2023-07-29T15:06:49;2.30;;;1.10;;
37303;SDS011;23188;51.188;16.374;2023-07-29T15:10:52;0.60;;;0.40;;
37303;SDS011;23188;51.188;16.374;2023-07-29T15:14:57;1.10;;;1.00;;
37303;SDS011;23188;51.188;16.374;2023-07-29T15:19:05;1.50;;;0.50;;
37303;SDS011;23188;51.188;16.374;2023-07-29T15:33:00;0.70;;;0.70;;
37303;SDS011;23188;51.188;16.374;2023-07-29T15:37:03;1.40;;;0.70;;
37303;SDS011;23188;51.188;16.374;2023-07-29T15:41:07;1.20;;;0.60;;
37303;SDS011;23188;51.188;16.374;2023-07-29T15:45:10;0.70;;;0.70;;
37303;SDS011;23188;51.188;16.374;2023-07-29T15:49:14;1.30;;;0.70;;
37303;SDS011;23188;51.188;16.374;2023-07-29T15:53:17;2.50;;;0.60;;
37303;SDS011;23188;51.188;16.374;2023-07-29T15:57:20;2.90;;;0.50;;
37303;SDS011;23188;51.188;16.374;2023-07-29T16:01:24;2.50;;;0.60;;
37303;SDS011;23188;51.188;16.374;2023-07-29T16:05:27;3.50;;;1.10;;
37303;SDS011;23188;51.188;16.374;2023-07-29T16:09:30;1.70;;;0.90;;
37303;SDS011;23188;51.188;16.374;2023-07-29T16:13:34;0.40;;;0.40;;
37303;SDS011;23188;51.188;16.374;2023-07-29T16:17:37;0.50;;;0.50;;
37303;SDS011;23188;51.188;16.374;2023-07-29T16:21:41;0.70;;;0.50;;
37303;SDS011;23188;51.188;16.374;2023-07-29T16:25:44;0.80;;;0.50;;
37303;SDS011;23188;51.188;16.374;2023-07-29T16:29:49;0.30;;;0.30;;
37303;SDS011;23188;51.188;16.374;2023-07-29T16:37:58;0.70;;;0.30;;
37303;SDS011;23188;51.188;16.374;2023-07-29T16:42:04;1.80;;;0.50;;
37303;SDS011;23188;51.188;16.374;2023-07-29T16:50:13;1.40;;;0.50;;
37303;SDS011;23188;51.188;16.374;2023-07-29T16:54:18;0.80;;;0.40;;
37303;SDS011;23188;51.188;16.374;2023-07-29T17:02:27;0.40;;;0.30;;
37303;SDS011;23188;51.188;16.374;2023-07-29T17:06:32;1.00;;;0.30;;
37303;SDS011;23188;51.188;16.374;2023-07-29T17:10:37;0.20;;;0.10;;
37303;SDS011;23188;51.188;16.374;2023-07-29T17:14:44;1.00;;;0.40;;
37303;SDS011;23188;51.188;16.374;2023-07-29T17:18:49;0.50;;;0.50;;
37303;SDS011;23188;51.188;16.374;2023-07-29T17:22:53;0.50;;;0.20;;
37303;SDS011;23188;51.188;16.374;2023-07-29T17:26:58;1.50;;;0.60;;
37303;SDS011;23188;51.188;16.374;2023-07-29T17:31:02;0.60;;;0.30;;
37303;SDS011;23188;51.188;16.374;2023-07-29T17:35:07;0.20;;;0.10;;
37303;SDS011;23188;51.188;16.374;2023-07-29T17:39:12;0.30;;;0.20;;
37303;SDS011;23188;51.188;16.374;2023-07-29T17:43:16;0.30;;;0.30;;
37303;SDS011;23188;51.188;16.374;2023-07-29T17:47:20;1.10;;;0.30;;
37303;SDS011;23188;51.188;16.374;2023-07-29T17:51:25;1.20;;;1.00;;
37303;SDS011;23188;51.188;16.374;2023-07-29T17:55:29;0.80;;;0.10;;
37303;SDS011;23188;51.188;16.374;2023-07-29T17:59:34;2.50;;;0.50;;
37303;SDS011;23188;51.188;16.374;2023-07-29T18:03:38;0.80;;;0.30;;
37303;SDS011;23188;51.188;16.374;2023-07-29T18:07:45;1.80;;;0.70;;
37303;SDS011;23188;51.188;16.374;2023-07-29T18:11:49;0.70;;;0.40;;
37303;SDS011;23188;51.188;16.374;2023-07-29T18:15:55;1.10;;;0.40;;
37303;SDS011;23188;51.188;16.374;2023-07-29T18:20:01;4.40;;;1.70;;
37303;SDS011;23188;51.188;16.374;2023-07-29T18:24:05;0.60;;;0.30;;
37303;SDS011;23188;51.188;16.374;2023-07-29T18:28:09;1.00;;;0.40;;
37303;SDS011;23188;51.188;16.374;2023-07-29T18:46:38;3.10;;;0.60;;
37303;SDS011;23188;51.188;16.374;2023-07-29T18:50:45;3.20;;;0.70;;
37303;SDS011;23188;51.188;16.374;2023-07-29T18:54:48;1.20;;;0.70;;
37303;SDS011;23188;51.188;16.374;2023-07-29T18:58:51;0.60;;;0.50;;
37303;SDS011;23188;51.188;16.374;2023-07-29T19:02:54;4.30;;;1.50;;
37303;SDS011;23188;51.188;16.374;2023-07-29T19:07:00;6.80;;;1.40;;
37303;SDS011;23188;51.188;16.374;2023-07-29T19:11:03;1.60;;;1.00;;
37303;SDS011;23188;51.188;16.374;2023-07-29T19:15:07;7.40;;;1.30;;
37303;SDS011;23188;51.188;16.374;2023-07-29T19:19:10;1.30;;;0.90;;
37303;SDS011;23188;51.188;16.374;2023-07-29T19:23:13;3.40;;;1.00;;
37303;SDS011;23188;51.188;16.374;2023-07-29T19:27:16;1.60;;;0.80;;
37303;SDS011;23188;51.188;16.374;2023-07-29T19:31:19;2.50;;;0.70;;
37303;SDS011;23188;51.188;16.374;2023-07-29T19:35:23;12.60;;;2.60;;
37303;SDS011;23188;51.188;16.374;2023-07-29T19:39:29;9.80;;;3.40;;
37303;SDS011;23188;51.188;16.374;2023-07-29T19:43:34;8.80;;;2.60;;
37303;SDS011;23188;51.188;16.374;2023-07-29T19:47:37;2.60;;;0.50;;
37303;SDS011;23188;51.188;16.374;2023-07-29T19:51:45;2.40;;;1.10;;
37303;SDS011;23188;51.188;16.374;2023-07-29T19:55:48;3.00;;;1.00;;
37303;SDS011;23188;51.188;16.374;2023-07-29T19:59:54;2.00;;;1.00;;
37303;SDS011;23188;51.188;16.374;2023-07-29T20:08:32;2.60;;;1.70;;
37303;SDS011;23188;51.188;16.374;2023-07-29T20:12:36;2.40;;;1.70;;
37303;SDS011;23188;51.188;16.374;2023-07-29T20:16:39;6.60;;;2.00;;
37303;SDS011;23188;51.188;16.374;2023-07-29T20:25:41;2.00;;;1.10;;
37303;SDS011;23188;51.188;16.374;2023-07-29T20:29:44;5.10;;;1.30;;
37303;SDS011;23188;51.188;16.374;2023-07-29T20:33:47;6.80;;;1.60;;
37303;SDS011;23188;51.188;16.374;2023-07-29T20:37:50;6.00;;;1.80;;
37303;SDS011;23188;51.188;16.374;2023-07-29T20:41:57;7.10;;;1.20;;
37303;SDS011;23188;51.188;16.374;2023-07-29T20:46:00;7.30;;;1.70;;
37303;SDS011;23188;51.188;16.374;2023-07-29T20:54:34;6.00;;;1.40;;
37303;SDS011;23188;51.188;16.374;2023-07-29T20:58:37;4.00;;;1.60;;
37303;SDS011;23188;51.188;16.374;2023-07-29T21:02:40;4.10;;;1.90;;
37303;SDS011;23188;51.188;16.374;2023-07-29T21:06:43;5.30;;;1.10;;
37303;SDS011;23188;51.188;16.374;2023-07-29T21:10:50;6.30;;;1.80;;
37303;SDS011;23188;51.188;16.374;2023-07-29T21:14:55;3.80;;;1.70;;
37303;SDS011;23188;51.188;16.374;2023-07-29T21:18:58;3.70;;;2.30;;
37303;SDS011;23188;51.188;16.374;2023-07-29T21:23:01;3.80;;;2.50;;
37303;SDS011;23188;51.188;16.374;2023-07-29T21:27:04;4.40;;;1.10;;
37303;SDS011;23188;51.188;16.374;2023-07-29T21:31:08;2.00;;;1.30;;
37303;SDS011;23188;51.188;16.374;2023-07-29T21:35:17;4.50;;;2.20;;
37303;SDS011;23188;51.188;16.374;2023-07-29T21:39:20;6.80;;;2.00;;
37303;SDS011;23188;51.188;16.374;2023-07-29T21:43:23;4.20;;;1.80;;
37303;SDS011;23188;51.188;16.374;2023-07-29T21:47:26;8.60;;;2.60;;
37303;SDS011;23188;51.188;16.374;2023-07-29T21:51:29;4.10;;;2.30;;
37303;SDS011;23188;51.188;16.374;2023-07-29T21:55:39;4.80;;;2.00;;
37303;SDS011;23188;51.188;16.374;2023-07-29T21:59:49;2.90;;;1.20;;
37303;SDS011;23188;51.188;16.374;2023-07-29T22:03:52;3.50;;;1.40;;
37303;SDS011;23188;51.188;16.374;2023-07-29T22:08:01;5.90;;;2.00;;
37303;SDS011;23188;51.188;16.374;2023-07-29T22:12:07;6.10;;;1.90;;
37303;SDS011;23188;51.188;16.374;2023-07-29T22:16:10;6.30;;;2.20;;
37303;SDS011;23188;51.188;16.374;2023-07-29T22:20:16;3.80;;;2.00;;
37303;SDS011;23188;51.188;16.374;2023-07-29T22:24:20;2.20;;;2.00;;
37303;SDS011;23188;51.188;16.374;2023-07-29T22:28:24;10.70;;;3.30;;
37303;SDS011;23188;51.188;16.374;2023-07-29T22:32:28;7.20;;;2.00;;
37303;SDS011;23188;51.188;16.374;2023-07-29T22:36:33;4.00;;;1.80;;
37303;SDS011;23188;51.188;16.374;2023-07-29T22:40:36;5.00;;;1.70;;
37303;SDS011;23188;51.188;16.374;2023-07-29T22:44:40;1.50;;;1.30;;
37303;SDS011;23188;51.188;16.374;2023-07-29T22:48:43;3.50;;;1.80;;
37303;SDS011;23188;51.188;16.374;2023-07-29T22:52:47;6.90;;;1.80;;
37303;SDS011;23188;51.188;16.374;2023-07-29T22:56:50;6.10;;;1.30;;
37303;SDS011;23188;51.188;16.374;2023-07-29T23:00:54;6.80;;;2.10;;
37303;SDS011;23188;51.188;16.374;2023-07-29T23:04:59;17.10;;;2.30;;
37303;SDS011;23188;51.188;16.374;2023-07-29T23:09:03;6.60;;;1.70;;
37303;SDS011;23188;51.188;16.374;2023-07-29T23:13:07;8.10;;;1.80;;
37303;SDS011;23188;51.188;16.374;2023-07-29T23:17:11;4.90;;;1.70;;
37303;SDS011;23188;51.188;16.374;2023-07-29T23:21:15;3.70;;;1.60;;
37303;SDS011;23188;51.188;16.374;2023-07-29T23:25:18;8.00;;;2.40;;
37303;SDS011;23188;51.188;16.374;2023-07-29T23:29:21;5.90;;;1.30;;
37303;SDS011;23188;51.188;16.374;2023-07-29T23:33:24;7.10;;;2.40;;
37303;SDS011;23188;51.188;16.374;2023-07-29T23:37:29;6.70;;;1.90;;
37303;SDS011;23188;51.188;16.374;2023-07-29T23:41:33;7.10;;;1.90;;
37303;SDS011;23188;51.188;16.374;2023-07-29T23:45:37;10.60;;;2.10;;
37303;SDS011;23188;51.188;16.374;2023-07-29T23:49:40;4.80;;;2.20;;
37303;SDS011;23188;51.188;16.374;2023-07-29T23:53:43;9.70;;;2.10;;
37303;SDS011;23188;51.188;16.374;2023-07-29T23:57:47;3.00;;;1.30;;
